KPF554 LOWS-EGMC
Flight info
| Callsign | KPF554 |
|---|---|
| Flight time | 1h 27m |
| Altitude | 12000 |
| Route | TRAUN L856 KONIN DCT AMEXO DCT BABEG/N0461F360 DCT LIRSU DCT DENUT L608 SASKI/N0385F180 L608 SUMUM |
| Aircraft | CL60/M-SBDE1E2E3FGHIJ1J4J5J7M3RWXYZ/LB1V1D1 |
Departure
| Time | 2026-05-06 08:37 |
|---|---|
| Airport | Salzburg Airport (LOWS) |
Arrival
| Time | 2026-05-06 10:05 |
|---|---|
| Airport | London Southend Airport (EGMC) |
| Time | Latitude | Longitude | Altitude | Speed | Heading |
|---|---|---|---|---|---|
| 2026-05-06 07:54 | 47.79592 | 12.99875 | 1418 ft | 0 kts | 15° |
| 2026-05-06 08:32 | 47.79607 | 12.99865 | 1418 ft | 7 kts | 288° |
| 2026-05-06 08:32 | 47.79564 | 12.99874 | 1418 ft | 9 kts | 131° |
| 2026-05-06 08:32 | 47.79561 | 12.99943 | 1418 ft | 6 kts | 67° |
| 2026-05-06 08:32 | 47.79539 | 12.99995 | 1418 ft | 8 kts | 157° |
| 2026-05-06 08:33 | 47.79444 | 13.00055 | 1418 ft | 19 kts | 158° |
| 2026-05-06 08:33 | 47.79337 | 13.00120 | 1418 ft | 14 kts | 156° |
| 2026-05-06 08:33 | 47.79248 | 13.00178 | 1418 ft | 13 kts | 156° |
| 2026-05-06 08:33 | 47.79147 | 13.00242 | 1418 ft | 15 kts | 157° |
| 2026-05-06 08:34 | 47.79070 | 13.00291 | 1418 ft | 9 kts | 157° |
| 2026-05-06 08:34 | 47.78925 | 13.00383 | 1418 ft | 9 kts | 156° |
| 2026-05-06 08:34 | 47.78866 | 13.00420 | 1418 ft | 12 kts | 157° |
| 2026-05-06 08:35 | 47.78755 | 13.00490 | 1418 ft | 18 kts | 156° |
| 2026-05-06 08:35 | 47.78656 | 13.00554 | 1418 ft | 14 kts | 156° |
| 2026-05-06 08:35 | 47.78509 | 13.00647 | 1418 ft | 29 kts | 157° |
| 2026-05-06 08:35 | 47.78339 | 13.00754 | 1418 ft | 16 kts | 158° |
| 2026-05-06 08:36 | 47.78250 | 13.00816 | 1418 ft | 14 kts | 147° |
| 2026-05-06 08:36 | 47.78186 | 13.00912 | 1418 ft | 11 kts | 111° |
| 2026-05-06 08:36 | 47.78196 | 13.01026 | 1419 ft | 11 kts | 68° |
| 2026-05-06 08:36 | 47.78255 | 13.01071 | 1419 ft | 12 kts | 341° |
| 2026-05-06 08:37 | 47.78540 | 13.00890 | 1419 ft | 85 kts | 336° |
| 2026-05-06 08:37 | 47.79317 | 13.00402 | 1419 ft | 155 kts | 338° |
| 2026-05-06 08:37 | 47.80436 | 12.99692 | 1742 ft | 183 kts | 338° |
| 2026-05-06 08:37 | 47.81627 | 12.98917 | 2400 ft | 185 kts | 337° |
| 2026-05-06 08:38 | 47.82576 | 12.97817 | 2870 ft | 183 kts | 309° |
| 2026-05-06 08:38 | 47.83366 | 12.95963 | 2926 ft | 235 kts | 301° |
| 2026-05-06 08:38 | 47.84214 | 12.93745 | 3547 ft | 258 kts | 301° |
| 2026-05-06 08:38 | 47.85127 | 12.91365 | 4416 ft | 271 kts | 300° |
| 2026-05-06 08:39 | 47.86069 | 12.88912 | 5388 ft | 278 kts | 300° |
| 2026-05-06 08:39 | 47.87023 | 12.86427 | 6407 ft | 283 kts | 300° |
| 2026-05-06 08:39 | 47.87995 | 12.83895 | 7412 ft | 287 kts | 298° |
| 2026-05-06 08:39 | 47.88994 | 12.81289 | 8386 ft | 292 kts | 298° |
| 2026-05-06 08:40 | 47.90011 | 12.78637 | 9364 ft | 297 kts | 297° |
| 2026-05-06 08:40 | 47.91030 | 12.75978 | 10298 ft | 302 kts | 297° |
| 2026-05-06 08:40 | 47.92089 | 12.73187 | 10984 ft | 318 kts | 296° |
| 2026-05-06 08:40 | 47.93174 | 12.70281 | 11695 ft | 329 kts | 296° |
| 2026-05-06 08:41 | 47.94293 | 12.67285 | 12605 ft | 334 kts | 295° |
| 2026-05-06 08:41 | 47.95417 | 12.64277 | 13559 ft | 334 kts | 295° |
| 2026-05-06 08:41 | 47.96544 | 12.61209 | 14474 ft | 335 kts | 291° |
| 2026-05-06 08:41 | 47.97206 | 12.57936 | 15208 ft | 333 kts | 272° |
| 2026-05-06 08:42 | 47.97098 | 12.54477 | 15927 ft | 334 kts | 259° |
| 2026-05-06 08:42 | 47.96772 | 12.51045 | 16639 ft | 340 kts | 259° |
| 2026-05-06 08:42 | 47.96445 | 12.47523 | 17376 ft | 343 kts | 259° |
| 2026-05-06 08:42 | 47.96118 | 12.44007 | 18111 ft | 347 kts | 259° |
| 2026-05-06 08:43 | 47.95782 | 12.40410 | 18822 ft | 349 kts | 259° |
| 2026-05-06 08:43 | 47.95451 | 12.36861 | 19513 ft | 351 kts | 259° |
| 2026-05-06 08:43 | 47.95112 | 12.33250 | 20210 ft | 354 kts | 258° |
| 2026-05-06 08:43 | 47.94765 | 12.29570 | 20843 ft | 357 kts | 258° |
| 2026-05-06 08:44 | 47.94415 | 12.25868 | 21490 ft | 360 kts | 257° |
| 2026-05-06 08:44 | 47.94065 | 12.22171 | 22102 ft | 362 kts | 257° |
| 2026-05-06 08:44 | 47.93710 | 12.18454 | 22688 ft | 365 kts | 257° |
| 2026-05-06 08:44 | 47.93345 | 12.14680 | 23254 ft | 369 kts | 256° |
| 2026-05-06 08:45 | 47.92977 | 12.10890 | 23794 ft | 372 kts | 256° |
| 2026-05-06 08:45 | 47.92603 | 12.07039 | 24405 ft | 374 kts | 256° |
| 2026-05-06 08:45 | 47.92235 | 12.03253 | 25058 ft | 373 kts | 257° |
| 2026-05-06 08:45 | 47.91859 | 11.99404 | 25660 ft | 374 kts | 257° |
| 2026-05-06 08:46 | 47.91483 | 11.95575 | 26171 ft | 375 kts | 257° |
| 2026-05-06 08:46 | 47.91103 | 11.91727 | 26692 ft | 376 kts | 257° |
| 2026-05-06 08:46 | 47.90720 | 11.87843 | 27200 ft | 377 kts | 257° |
| 2026-05-06 08:46 | 47.90336 | 11.83975 | 27621 ft | 379 kts | 257° |
| 2026-05-06 08:47 | 47.89949 | 11.80092 | 28041 ft | 381 kts | 257° |
| 2026-05-06 08:47 | 47.89560 | 11.76172 | 28449 ft | 383 kts | 257° |
| 2026-05-06 08:47 | 47.89172 | 11.72260 | 28853 ft | 384 kts | 257° |
| 2026-05-06 08:47 | 47.88783 | 11.68352 | 29241 ft | 385 kts | 257° |
| 2026-05-06 08:48 | 47.88385 | 11.64368 | 29597 ft | 387 kts | 257° |
| 2026-05-06 08:48 | 47.87986 | 11.60396 | 29939 ft | 388 kts | 257° |
| 2026-05-06 08:48 | 47.87586 | 11.56428 | 30236 ft | 390 kts | 257° |
| 2026-05-06 08:48 | 47.87183 | 11.52441 | 30588 ft | 391 kts | 257° |
| 2026-05-06 08:49 | 47.86779 | 11.48456 | 30900 ft | 392 kts | 257° |
| 2026-05-06 08:49 | 47.86365 | 11.44385 | 31126 ft | 394 kts | 257° |
| 2026-05-06 08:49 | 47.86107 | 11.40347 | 31364 ft | 401 kts | 265° |
| 2026-05-06 08:49 | 47.86462 | 11.36176 | 31574 ft | 412 kts | 277° |
| 2026-05-06 08:50 | 47.87397 | 11.32022 | 31759 ft | 424 kts | 287° |
| 2026-05-06 08:50 | 47.88806 | 11.28185 | 31976 ft | 434 kts | 295° |
| 2026-05-06 08:50 | 47.90548 | 11.24369 | 32179 ft | 437 kts | 297° |
| 2026-05-06 08:50 | 47.92275 | 11.20603 | 32333 ft | 440 kts | 297° |
| 2026-05-06 08:51 | 47.94000 | 11.16819 | 32577 ft | 440 kts | 296° |
| 2026-05-06 08:51 | 47.95713 | 11.13038 | 32822 ft | 439 kts | 296° |
| 2026-05-06 08:51 | 47.97413 | 11.09234 | 33091 ft | 438 kts | 296° |
| 2026-05-06 08:51 | 47.99088 | 11.05465 | 33319 ft | 438 kts | 296° |
| 2026-05-06 08:52 | 48.00783 | 11.01632 | 33582 ft | 437 kts | 296° |
| 2026-05-06 08:52 | 48.02435 | 10.97883 | 33800 ft | 437 kts | 296° |
| 2026-05-06 08:52 | 48.04108 | 10.94074 | 34051 ft | 436 kts | 296° |
| 2026-05-06 08:52 | 48.05756 | 10.90308 | 34246 ft | 436 kts | 296° |
| 2026-05-06 08:53 | 48.07427 | 10.86480 | 34476 ft | 435 kts | 296° |
| 2026-05-06 08:53 | 48.09094 | 10.82651 | 34645 ft | 435 kts | 296° |
| 2026-05-06 08:53 | 48.10793 | 10.78918 | 34787 ft | 439 kts | 299° |
| 2026-05-06 08:53 | 48.12673 | 10.75246 | 34943 ft | 440 kts | 301° |
| 2026-05-06 08:54 | 48.14540 | 10.71620 | 35068 ft | 440 kts | 301° |
| 2026-05-06 08:54 | 48.16418 | 10.67961 | 35219 ft | 439 kts | 301° |
| 2026-05-06 08:54 | 48.18268 | 10.64348 | 35349 ft | 439 kts | 301° |
| 2026-05-06 08:54 | 48.20132 | 10.60699 | 35477 ft | 440 kts | 301° |
| 2026-05-06 08:55 | 48.21999 | 10.57038 | 35573 ft | 440 kts | 301° |
| 2026-05-06 08:55 | 48.25717 | 10.49724 | 35785 ft | 441 kts | 301° |
| 2026-05-06 08:56 | 48.29459 | 10.42333 | 35794 ft | 447 kts | 301° |
| 2026-05-06 08:56 | 48.33199 | 10.34923 | 35803 ft | 452 kts | 301° |
| 2026-05-06 08:57 | 48.37034 | 10.27302 | 35798 ft | 454 kts | 301° |
| 2026-05-06 08:57 | 48.40841 | 10.19717 | 35797 ft | 454 kts | 301° |
| 2026-05-06 08:58 | 48.44636 | 10.12129 | 35797 ft | 453 kts | 301° |
| 2026-05-06 08:58 | 48.48418 | 10.04544 | 35796 ft | 453 kts | 301° |
| 2026-05-06 08:59 | 48.52205 | 9.96928 | 35789 ft | 454 kts | 301° |
| 2026-05-06 08:59 | 48.55988 | 9.89297 | 35809 ft | 454 kts | 301° |
| 2026-05-06 09:00 | 48.59753 | 9.81680 | 35804 ft | 454 kts | 301° |
| 2026-05-06 09:00 | 48.63538 | 9.73999 | 35792 ft | 454 kts | 301° |
| 2026-05-06 09:01 | 48.67304 | 9.66339 | 35797 ft | 456 kts | 302° |
| 2026-05-06 09:01 | 48.71134 | 9.58668 | 35806 ft | 456 kts | 302° |
| 2026-05-06 09:02 | 48.74952 | 9.51009 | 35792 ft | 457 kts | 302° |
| 2026-05-06 09:02 | 48.78775 | 9.43319 | 35788 ft | 458 kts | 302° |
| 2026-05-06 09:03 | 48.82616 | 9.35568 | 35815 ft | 459 kts | 302° |
| 2026-05-06 09:03 | 48.86436 | 9.27838 | 35808 ft | 459 kts | 302° |
| 2026-05-06 09:04 | 48.90272 | 9.20053 | 35807 ft | 459 kts | 302° |
| 2026-05-06 09:04 | 48.92195 | 9.16139 | 35981 ft | 463 kts | 302° |
| 2026-05-06 09:04 | 48.94149 | 9.12159 | 35835 ft | 462 kts | 302° |
| 2026-05-06 09:05 | 48.97952 | 9.04398 | 35806 ft | 457 kts | 302° |
| 2026-05-06 09:05 | 49.01742 | 8.96638 | 35806 ft | 457 kts | 302° |
| 2026-05-06 09:06 | 49.05542 | 8.88833 | 35806 ft | 459 kts | 302° |
| 2026-05-06 09:06 | 49.09351 | 8.80989 | 35806 ft | 460 kts | 302° |
| 2026-05-06 09:07 | 49.13160 | 8.73120 | 35784 ft | 459 kts | 303° |
| 2026-05-06 09:07 | 49.16970 | 8.65227 | 35784 ft | 459 kts | 303° |
| 2026-05-06 09:08 | 49.20764 | 8.57344 | 35784 ft | 459 kts | 302° |
| 2026-05-06 09:08 | 49.24575 | 8.49400 | 35785 ft | 459 kts | 302° |
| 2026-05-06 09:09 | 49.28357 | 8.41496 | 35785 ft | 460 kts | 303° |
| 2026-05-06 09:09 | 49.32115 | 8.33614 | 35787 ft | 460 kts | 302° |
| 2026-05-06 09:10 | 49.35911 | 8.25632 | 35782 ft | 460 kts | 302° |
| 2026-05-06 09:10 | 49.39697 | 8.17648 | 35784 ft | 460 kts | 302° |
| 2026-05-06 09:11 | 49.43442 | 8.09724 | 35791 ft | 459 kts | 302° |
| 2026-05-06 09:11 | 49.47185 | 8.01783 | 35787 ft | 459 kts | 302° |
| 2026-05-06 09:12 | 49.50938 | 7.93797 | 35785 ft | 459 kts | 302° |
| 2026-05-06 09:12 | 49.54671 | 7.85827 | 35778 ft | 459 kts | 302° |
| 2026-05-06 09:13 | 49.58407 | 7.77830 | 35787 ft | 459 kts | 302° |
| 2026-05-06 09:13 | 49.62127 | 7.69842 | 35786 ft | 459 kts | 302° |
| 2026-05-06 09:14 | 49.65855 | 7.61812 | 35787 ft | 459 kts | 302° |
| 2026-05-06 09:14 | 49.69576 | 7.53772 | 35786 ft | 458 kts | 303° |
| 2026-05-06 09:15 | 49.73279 | 7.45749 | 35786 ft | 458 kts | 303° |
| 2026-05-06 09:15 | 49.76978 | 7.37710 | 35789 ft | 458 kts | 303° |
| 2026-05-06 09:16 | 49.80650 | 7.29704 | 35783 ft | 458 kts | 302° |
| 2026-05-06 09:16 | 49.84353 | 7.21605 | 35780 ft | 459 kts | 302° |
| 2026-05-06 09:17 | 49.88041 | 7.13516 | 35785 ft | 458 kts | 302° |
| 2026-05-06 09:17 | 49.91721 | 7.05420 | 35778 ft | 458 kts | 302° |
| 2026-05-06 09:18 | 49.95384 | 6.97338 | 35784 ft | 457 kts | 302° |
| 2026-05-06 09:18 | 49.99034 | 6.89257 | 35772 ft | 457 kts | 302° |
| 2026-05-06 09:19 | 50.02691 | 6.81139 | 35767 ft | 457 kts | 302° |
| 2026-05-06 09:19 | 50.06348 | 6.72994 | 35765 ft | 458 kts | 303° |
| 2026-05-06 09:20 | 50.09995 | 6.64847 | 35768 ft | 458 kts | 302° |
| 2026-05-06 09:20 | 50.13637 | 6.56685 | 35776 ft | 458 kts | 303° |
| 2026-05-06 09:21 | 50.17274 | 6.48510 | 35774 ft | 458 kts | 303° |
| 2026-05-06 09:21 | 50.20760 | 6.40125 | 35770 ft | 457 kts | 300° |
| 2026-05-06 09:22 | 50.24076 | 6.31710 | 35774 ft | 457 kts | 299° |
| 2026-05-06 09:22 | 50.27407 | 6.23233 | 35773 ft | 457 kts | 299° |
| 2026-05-06 09:23 | 50.30744 | 6.14715 | 35772 ft | 457 kts | 299° |
| 2026-05-06 09:23 | 50.34084 | 6.06161 | 35776 ft | 458 kts | 299° |
| 2026-05-06 09:24 | 50.37397 | 5.97653 | 35776 ft | 457 kts | 300° |
| 2026-05-06 09:24 | 50.40710 | 5.89115 | 35775 ft | 457 kts | 300° |
| 2026-05-06 09:25 | 50.44023 | 5.80550 | 35789 ft | 456 kts | 300° |
| 2026-05-06 09:25 | 50.47339 | 5.71949 | 35797 ft | 456 kts | 300° |
| 2026-05-06 09:26 | 50.50601 | 5.63460 | 35813 ft | 456 kts | 300° |
| 2026-05-06 09:26 | 50.53897 | 5.54855 | 35815 ft | 457 kts | 300° |
| 2026-05-06 09:27 | 50.57173 | 5.46274 | 35816 ft | 457 kts | 300° |
| 2026-05-06 09:27 | 50.60032 | 5.38763 | 36006 ft | 452 kts | 300° |
| 2026-05-06 09:28 | 50.61784 | 5.34147 | 35965 ft | 456 kts | 299° |
| 2026-05-06 09:28 | 50.65048 | 5.25529 | 35829 ft | 455 kts | 299° |
| 2026-05-06 09:29 | 50.68293 | 5.16930 | 35830 ft | 452 kts | 299° |
| 2026-05-06 09:29 | 50.71521 | 5.08350 | 35822 ft | 453 kts | 300° |
| 2026-05-06 09:30 | 50.74748 | 4.99747 | 35831 ft | 455 kts | 300° |
| 2026-05-06 09:30 | 50.77978 | 4.91101 | 35842 ft | 455 kts | 299° |
| 2026-05-06 09:31 | 50.81196 | 4.82462 | 35824 ft | 456 kts | 300° |
| 2026-05-06 09:31 | 50.84419 | 4.73780 | 35860 ft | 456 kts | 300° |
| 2026-05-06 09:32 | 50.87648 | 4.65051 | 35850 ft | 456 kts | 300° |
| 2026-05-06 09:32 | 50.90837 | 4.56404 | 35859 ft | 455 kts | 300° |
| 2026-05-06 09:33 | 50.94066 | 4.47615 | 35855 ft | 455 kts | 300° |
| 2026-05-06 09:33 | 50.97279 | 4.38841 | 35863 ft | 456 kts | 300° |
| 2026-05-06 09:34 | 51.00293 | 4.30582 | 35860 ft | 457 kts | 299° |
| 2026-05-06 09:34 | 51.03505 | 4.21753 | 35862 ft | 457 kts | 299° |
| 2026-05-06 09:35 | 51.06681 | 4.12992 | 35865 ft | 457 kts | 299° |
| 2026-05-06 09:35 | 51.09850 | 4.04218 | 35872 ft | 457 kts | 299° |
| 2026-05-06 09:36 | 51.13023 | 3.95404 | 35868 ft | 456 kts | 299° |
| 2026-05-06 09:36 | 51.16203 | 3.86540 | 35872 ft | 456 kts | 299° |
| 2026-05-06 09:37 | 51.19387 | 3.77636 | 35875 ft | 456 kts | 299° |
| 2026-05-06 09:37 | 51.22524 | 3.68831 | 35876 ft | 457 kts | 299° |
| 2026-05-06 09:38 | 51.25735 | 3.60026 | 35877 ft | 457 kts | 300° |
| 2026-05-06 09:38 | 51.28968 | 3.51321 | 35868 ft | 457 kts | 300° |
| 2026-05-06 09:38 | 51.30611 | 3.46883 | 35537 ft | 462 kts | 300° |
| 2026-05-06 09:39 | 51.32250 | 3.42450 | 35063 ft | 460 kts | 300° |
| 2026-05-06 09:39 | 51.33868 | 3.38061 | 34442 ft | 460 kts | 300° |
| 2026-05-06 09:39 | 51.35241 | 3.33742 | 33807 ft | 457 kts | 291° |
| 2026-05-06 09:39 | 51.36400 | 3.28954 | 33135 ft | 454 kts | 289° |
| 2026-05-06 09:40 | 51.37514 | 3.24234 | 32548 ft | 450 kts | 289° |
| 2026-05-06 09:40 | 51.38615 | 3.19571 | 31941 ft | 447 kts | 289° |
| 2026-05-06 09:40 | 51.40799 | 3.10298 | 30996 ft | 451 kts | 289° |
| 2026-05-06 09:41 | 51.41911 | 3.05566 | 30611 ft | 453 kts | 289° |
| 2026-05-06 09:41 | 51.43019 | 3.00843 | 30073 ft | 456 kts | 289° |
| 2026-05-06 09:41 | 51.44135 | 2.96082 | 29497 ft | 455 kts | 289° |
| 2026-05-06 09:41 | 51.45251 | 2.91310 | 28897 ft | 456 kts | 289° |
| 2026-05-06 09:42 | 51.46357 | 2.86569 | 28306 ft | 453 kts | 289° |
| 2026-05-06 09:42 | 51.47453 | 2.81864 | 27705 ft | 449 kts | 289° |
| 2026-05-06 09:42 | 51.48526 | 2.77248 | 27128 ft | 443 kts | 289° |
| 2026-05-06 09:42 | 51.49606 | 2.72589 | 26531 ft | 439 kts | 289° |
| 2026-05-06 09:43 | 51.50654 | 2.68063 | 25966 ft | 434 kts | 289° |
| 2026-05-06 09:43 | 51.51699 | 2.63536 | 25387 ft | 430 kts | 289° |
| 2026-05-06 09:43 | 51.52738 | 2.59029 | 24824 ft | 426 kts | 289° |
| 2026-05-06 09:43 | 51.53752 | 2.54619 | 24264 ft | 422 kts | 290° |
| 2026-05-06 09:44 | 51.54763 | 2.50212 | 23711 ft | 419 kts | 290° |
| 2026-05-06 09:44 | 51.55765 | 2.45836 | 23153 ft | 415 kts | 290° |
| 2026-05-06 09:44 | 51.56746 | 2.41540 | 22614 ft | 411 kts | 290° |
| 2026-05-06 09:44 | 51.57721 | 2.37264 | 22067 ft | 406 kts | 290° |
| 2026-05-06 09:45 | 51.58612 | 2.33352 | 21569 ft | 401 kts | 289° |
| 2026-05-06 09:45 | 51.59569 | 2.29153 | 20934 ft | 397 kts | 289° |
| 2026-05-06 09:45 | 51.60518 | 2.24977 | 20221 ft | 395 kts | 290° |
| 2026-05-06 09:45 | 51.61451 | 2.20866 | 19587 ft | 391 kts | 290° |
| 2026-05-06 09:46 | 51.62383 | 2.16747 | 18960 ft | 387 kts | 290° |
| 2026-05-06 09:46 | 51.63283 | 2.12765 | 18359 ft | 383 kts | 290° |
| 2026-05-06 09:46 | 51.64185 | 2.08763 | 17757 ft | 378 kts | 290° |
| 2026-05-06 09:46 | 51.65073 | 2.04809 | 17138 ft | 374 kts | 290° |
| 2026-05-06 09:47 | 51.65950 | 2.00901 | 16544 ft | 370 kts | 290° |
| 2026-05-06 09:47 | 51.66813 | 1.97040 | 15967 ft | 366 kts | 290° |
| 2026-05-06 09:47 | 51.67674 | 1.93189 | 15382 ft | 362 kts | 290° |
| 2026-05-06 09:47 | 51.68514 | 1.89420 | 14817 ft | 358 kts | 290° |
| 2026-05-06 09:48 | 51.69355 | 1.85640 | 14242 ft | 355 kts | 290° |
| 2026-05-06 09:48 | 51.70174 | 1.81955 | 13696 ft | 351 kts | 290° |
| 2026-05-06 09:48 | 51.70995 | 1.78251 | 13128 ft | 348 kts | 290° |
| 2026-05-06 09:48 | 51.71800 | 1.74616 | 12582 ft | 344 kts | 290° |
| 2026-05-06 09:49 | 51.72596 | 1.71013 | 12039 ft | 340 kts | 290° |
| 2026-05-06 09:49 | 51.73380 | 1.67460 | 11511 ft | 336 kts | 290° |
| 2026-05-06 09:49 | 51.74214 | 1.63664 | 10927 ft | 332 kts | 290° |
| 2026-05-06 09:49 | 51.74644 | 1.60006 | 10390 ft | 329 kts | 272° |
| 2026-05-06 09:50 | 51.74471 | 1.56367 | 9850 ft | 319 kts | 265° |
| 2026-05-06 09:50 | 51.74240 | 1.52869 | 9353 ft | 310 kts | 266° |
| 2026-05-06 09:50 | 51.74024 | 1.49507 | 8891 ft | 301 kts | 266° |
| 2026-05-06 09:50 | 51.73808 | 1.46171 | 8420 ft | 293 kts | 266° |
| 2026-05-06 09:51 | 51.73600 | 1.42971 | 7954 ft | 286 kts | 266° |
| 2026-05-06 09:51 | 51.73396 | 1.39805 | 7544 ft | 278 kts | 266° |
| 2026-05-06 09:51 | 51.73199 | 1.36786 | 7372 ft | 265 kts | 266° |
| 2026-05-06 09:51 | 51.72928 | 1.33854 | 7413 ft | 263 kts | 258° |
| 2026-05-06 09:52 | 51.72478 | 1.31022 | 7255 ft | 262 kts | 256° |
| 2026-05-06 09:52 | 51.72002 | 1.28173 | 7047 ft | 255 kts | 256° |
| 2026-05-06 09:52 | 51.71541 | 1.25436 | 6878 ft | 246 kts | 256° |
| 2026-05-06 09:52 | 51.71096 | 1.22809 | 6712 ft | 238 kts | 256° |
| 2026-05-06 09:53 | 51.70657 | 1.20232 | 6553 ft | 245 kts | 256° |
| 2026-05-06 09:53 | 51.70207 | 1.17578 | 6453 ft | 241 kts | 256° |
| 2026-05-06 09:53 | 51.69767 | 1.15013 | 6312 ft | 232 kts | 256° |
| 2026-05-06 09:53 | 51.69339 | 1.12547 | 6125 ft | 225 kts | 256° |
| 2026-05-06 09:54 | 51.68920 | 1.10165 | 5908 ft | 221 kts | 256° |
| 2026-05-06 09:54 | 51.68496 | 1.07777 | 5665 ft | 217 kts | 256° |
| 2026-05-06 09:54 | 51.68081 | 1.05462 | 5409 ft | 215 kts | 256° |
| 2026-05-06 09:54 | 51.67670 | 1.03172 | 5146 ft | 213 kts | 256° |
| 2026-05-06 09:55 | 51.67259 | 1.00887 | 4977 ft | 209 kts | 256° |
| 2026-05-06 09:55 | 51.66847 | 0.98594 | 4979 ft | 213 kts | 256° |
| 2026-05-06 09:55 | 51.66437 | 0.96301 | 4988 ft | 214 kts | 256° |
| 2026-05-06 09:55 | 51.66021 | 0.93987 | 4988 ft | 215 kts | 256° |
| 2026-05-06 09:56 | 51.65605 | 0.91661 | 4982 ft | 215 kts | 256° |
| 2026-05-06 09:56 | 51.65191 | 0.89341 | 4982 ft | 215 kts | 256° |
| 2026-05-06 09:56 | 51.64780 | 0.87047 | 4982 ft | 215 kts | 256° |
| 2026-05-06 09:56 | 51.64358 | 0.84725 | 4982 ft | 214 kts | 256° |
| 2026-05-06 09:57 | 51.63933 | 0.82407 | 4983 ft | 214 kts | 256° |
| 2026-05-06 09:57 | 51.63510 | 0.80114 | 4898 ft | 217 kts | 256° |
| 2026-05-06 09:57 | 51.63074 | 0.77766 | 4686 ft | 217 kts | 256° |
| 2026-05-06 09:57 | 51.62645 | 0.75472 | 4482 ft | 214 kts | 256° |
| 2026-05-06 09:58 | 51.62214 | 0.73174 | 4278 ft | 212 kts | 257° |
| 2026-05-06 09:58 | 51.61783 | 0.70891 | 4077 ft | 212 kts | 257° |
| 2026-05-06 09:58 | 51.61359 | 0.68653 | 3964 ft | 210 kts | 256° |
| 2026-05-06 09:58 | 51.60926 | 0.66356 | 3798 ft | 214 kts | 257° |
| 2026-05-06 09:59 | 51.60493 | 0.64070 | 3661 ft | 212 kts | 257° |
| 2026-05-06 09:59 | 51.60067 | 0.61819 | 3540 ft | 211 kts | 257° |
| 2026-05-06 09:59 | 51.59638 | 0.59562 | 3418 ft | 211 kts | 257° |
| 2026-05-06 09:59 | 51.59205 | 0.57295 | 3293 ft | 211 kts | 257° |
| 2026-05-06 10:00 | 51.58675 | 0.55054 | 3160 ft | 213 kts | 242° |
| 2026-05-06 10:00 | 51.57851 | 0.53095 | 3037 ft | 213 kts | 237° |
| 2026-05-06 10:00 | 51.56977 | 0.51181 | 2915 ft | 213 kts | 237° |
| 2026-05-06 10:00 | 51.56087 | 0.49246 | 2790 ft | 213 kts | 237° |
| 2026-05-06 10:01 | 51.55182 | 0.47376 | 2666 ft | 214 kts | 227° |
| 2026-05-06 10:01 | 51.53873 | 0.46281 | 2533 ft | 214 kts | 185° |
| 2026-05-06 10:01 | 51.52465 | 0.46742 | 2404 ft | 207 kts | 142° |
| 2026-05-06 10:01 | 51.51633 | 0.48488 | 2319 ft | 194 kts | 101° |
| 2026-05-06 10:02 | 51.51499 | 0.50639 | 2205 ft | 194 kts | 87° |
| 2026-05-06 10:02 | 51.51478 | 0.52811 | 2078 ft | 195 kts | 86° |
| 2026-05-06 10:02 | 51.51462 | 0.54959 | 1978 ft | 183 kts | 86° |
| 2026-05-06 10:02 | 51.51489 | 0.56882 | 1980 ft | 160 kts | 76° |
| 2026-05-06 10:03 | 51.51847 | 0.58537 | 1813 ft | 156 kts | 57° |
| 2026-05-06 10:03 | 51.52460 | 0.59910 | 1611 ft | 147 kts | 46° |
| 2026-05-06 10:03 | 51.53136 | 0.61069 | 1435 ft | 143 kts | 44° |
| 2026-05-06 10:03 | 51.53823 | 0.62236 | 1153 ft | 142 kts | 44° |
| 2026-05-06 10:04 | 51.54456 | 0.63448 | 936 ft | 142 kts | 48° |
| 2026-05-06 10:04 | 51.55046 | 0.64756 | 716 ft | 145 kts | 52° |
| 2026-05-06 10:04 | 51.55602 | 0.66119 | 494 ft | 149 kts | 53° |
| 2026-05-06 10:04 | 51.56174 | 0.67400 | 270 ft | 136 kts | 51° |
| 2026-05-06 10:05 | 51.56754 | 0.68693 | 64 ft | 136 kts | 53° |
| 2026-05-06 10:05 | 51.57209 | 0.69703 | 43 ft | 64 kts | 54° |
| 2026-05-06 10:05 | 51.57379 | 0.70076 | 41 ft | 37 kts | 54° |
| 2026-05-06 10:05 | 51.57497 | 0.70339 | 40 ft | 19 kts | 56° |
| 2026-05-06 10:06 | 51.57537 | 0.70449 | 40 ft | 7 kts | 96° |
| 2026-05-06 10:06 | 51.57496 | 0.70480 | 40 ft | 7 kts | 192° |
| 2026-05-06 10:06 | 51.57434 | 0.70463 | 40 ft | 10 kts | 191° |
| 2026-05-06 10:06 | 51.57364 | 0.70440 | 40 ft | 10 kts | 200° |
| 2026-05-06 10:07 | 51.57316 | 0.70356 | 40 ft | 10 kts | 234° |
| 2026-05-06 10:07 | 51.57276 | 0.70267 | 40 ft | 8 kts | 234° |
| 2026-05-06 10:07 | 51.57224 | 0.70232 | 40 ft | 9 kts | 183° |
| 2026-05-06 10:07 | 51.57149 | 0.70225 | 40 ft | 12 kts | 184° |
| 2026-05-06 10:08 | 51.57062 | 0.70216 | 41 ft | 11 kts | 184° |
| 2026-05-06 10:08 | 51.56984 | 0.70208 | 41 ft | 11 kts | 188° |
| 2026-05-06 10:08 | 51.56926 | 0.70190 | 41 ft | 7 kts | 203° |
| 2026-05-06 10:08 | 51.56889 | 0.70126 | 41 ft | 8 kts | 234° |
| 2026-05-06 10:09 | 51.56876 | 0.70008 | 42 ft | 11 kts | 280° |
| 2026-05-06 10:09 | 51.56887 | 0.69895 | 43 ft | 6 kts | 269° |
| 2026-05-06 10:09 | 51.56856 | 0.69866 | 43 ft | 4 kts | 191° |
| 2026-05-06 10:09 | 51.56849 | 0.69864 | 43 ft | 0 kts | 190° |
| 2026-05-06 10:10 | 51.56845 | 0.69863 | 43 ft | 0 kts | 190° |